createdAt,value
2022-11-03T00:03:27.313Z,5.50
2022-11-03T00:08:28.953Z,5.47
2022-11-03T00:13:30.775Z,5.39
2022-11-03T00:18:32.894Z,5.39
2022-11-03T00:23:37.125Z,5.37
2022-11-03T00:28:40.488Z,5.21
2022-11-03T00:33:43.075Z,5.16
2022-11-03T00:38:45.616Z,5.14
2022-11-03T00:43:48.226Z,5.13
2022-11-03T00:48:50.773Z,5.18
2022-11-03T00:53:53.737Z,5.17
2022-11-03T00:58:57.395Z,5.17
2022-11-03T01:04:17.906Z,5.17
2022-11-03T01:09:22.488Z,5.06
2022-11-03T01:14:26.309Z,5.03
2022-11-03T01:19:28.209Z,5.00
2022-11-03T01:24:29.847Z,5.02
2022-11-03T01:29:31.514Z,4.95
2022-11-03T01:34:33.262Z,4.94
2022-11-03T01:39:34.868Z,4.99
2022-11-03T01:44:47.643Z,4.75
2022-11-03T01:50:07.567Z,4.62
2022-11-03T01:55:13.826Z,4.60
2022-11-03T02:00:15.966Z,4.64
2022-11-03T02:05:19.221Z,4.61
2022-11-03T02:10:21.518Z,4.61
2022-11-03T02:15:24.053Z,4.57
2022-11-03T02:20:28.690Z,4.53
2022-11-03T02:25:47.474Z,4.48
2022-11-03T02:30:49.017Z,4.54
2022-11-03T02:36:03.738Z,4.46
2022-11-03T02:41:08.885Z,4.39
2022-11-03T02:46:13.655Z,4.41
2022-11-03T02:51:15.401Z,4.36
2022-11-03T02:56:24.811Z,4.31
2022-11-03T03:01:47.478Z,4.15
2022-11-03T03:06:55.805Z,4.17
2022-11-03T03:11:59.138Z,4.27
2022-11-03T03:17:05.275Z,4.29
2022-11-03T03:22:21.799Z,4.19
2022-11-03T03:27:27.615Z,4.19
2022-11-03T03:32:34.016Z,4.19
2022-11-03T03:37:38.217Z,4.08
2022-11-03T03:42:41.857Z,4.09
2022-11-03T03:47:43.841Z,4.08
2022-11-03T03:52:45.451Z,4.04
2022-11-03T03:57:47.069Z,4.05
2022-11-03T04:02:48.741Z,4.08
2022-11-03T04:07:50.483Z,4.05
2022-11-03T04:13:10.621Z,3.99
2022-11-03T04:18:31.154Z,3.94
2022-11-03T04:23:32.770Z,3.84
2022-11-03T04:28:34.507Z,3.65
2022-11-03T04:33:36.160Z,3.61
2022-11-03T04:38:38.096Z,3.65
2022-11-03T04:43:39.769Z,3.69
2022-11-03T04:48:41.854Z,3.70
2022-11-03T04:54:18.505Z,3.50
2022-11-03T04:59:20.144Z,3.59
2022-11-03T05:04:21.817Z,3.52
2022-11-03T05:09:28.987Z,3.55
2022-11-03T05:14:32.275Z,3.64
2022-11-03T05:19:40.242Z,3.68
2022-11-03T05:24:42.528Z,3.70
2022-11-03T05:29:44.636Z,3.65
2022-11-03T05:34:48.450Z,3.71
2022-11-03T05:39:51.273Z,3.55
2022-11-03T05:44:52.896Z,3.49
2022-11-03T05:50:01.973Z,3.36
2022-11-03T05:55:04.110Z,3.25
2022-11-03T06:00:21.857Z,3.22
2022-11-03T06:05:25.796Z,3.36
2022-11-03T06:10:31.577Z,3.43
2022-11-03T06:15:37.040Z,3.45
2022-11-03T06:20:39.607Z,3.41
2022-11-03T06:25:43.405Z,3.48
2022-11-03T06:30:46.347Z,3.51
2022-11-03T06:35:51.029Z,3.39
2022-11-03T06:40:53.645Z,3.25
2022-11-03T06:45:58.704Z,3.39
2022-11-03T06:51:01.199Z,3.65
2022-11-03T06:56:02.953Z,3.86
2022-11-03T07:01:14.971Z,4.01
2022-11-03T07:06:24.743Z,4.07
2022-11-03T07:11:28.430Z,4.30
2022-11-03T07:16:35.524Z,4.56
2022-11-03T07:21:48.600Z,4.82
2022-11-03T07:27:00.085Z,4.92
2022-11-03T07:32:02.369Z,5.17
2022-11-03T07:37:04.077Z,5.27
2022-11-03T07:42:15.474Z,5.49
2022-11-03T07:47:26.398Z,5.74
2022-11-03T07:52:28.097Z,5.85
2022-11-03T07:57:31.577Z,5.80
2022-11-03T08:02:36.682Z,5.55
2022-11-03T08:07:38.411Z,5.60
2022-11-03T08:12:40.033Z,5.50
2022-11-03T08:17:41.710Z,5.80
2022-11-03T08:22:49.848Z,6.03
2022-11-03T08:28:05.276Z,6.22
2022-11-03T08:33:07.200Z,6.62
2022-11-03T08:38:09.372Z,6.77
2022-11-03T08:43:11.237Z,6.80
2022-11-03T08:48:13.834Z,6.92
2022-11-03T08:53:15.576Z,7.00
2022-11-03T08:58:17.225Z,7.25
2022-11-03T09:03:18.885Z,7.51
2022-11-03T09:13:42.172Z,7.96
2022-11-03T09:18:43.928Z,8.07
2022-11-03T09:23:45.536Z,8.28
2022-11-03T09:28:47.595Z,8.50
2022-11-03T09:33:49.201Z,8.72
2022-11-03T09:38:51.139Z,8.89
2022-11-03T09:43:54.444Z,9.06
2022-11-03T09:48:56.778Z,9.17
2022-11-03T09:54:03.676Z,9.42
2022-11-03T09:59:17.275Z,9.50
2022-11-03T10:04:29.285Z,9.67
2022-11-03T10:09:30.920Z,10.01
2022-11-03T10:14:32.576Z,10.26
2022-11-03T10:19:34.203Z,10.09
2022-11-03T10:24:36.037Z,10.24
2022-11-03T10:29:39.919Z,10.49
2022-11-03T10:34:42.944Z,10.72
2022-11-03T10:39:45.452Z,10.92
2022-11-03T10:44:47.923Z,11.09
2022-11-03T10:49:49.629Z,11.07
2022-11-03T10:54:53.681Z,11.07
2022-11-03T10:59:56.071Z,11.32
2022-11-03T11:05:03.109Z,11.53
2022-11-03T11:10:13.469Z,11.48
2022-11-03T11:15:50.247Z,11.23
2022-11-03T11:20:51.875Z,11.30
2022-11-03T11:26:11.864Z,11.51
2022-11-03T11:31:22.863Z,11.52
2022-11-03T11:36:25.581Z,11.62
2022-11-03T11:42:05.161Z,11.61
2022-11-03T11:47:27.933Z,11.39
2022-11-03T11:52:30.436Z,11.61
2022-11-03T11:57:35.089Z,11.64
2022-11-03T12:02:36.735Z,11.78
2022-11-03T12:07:39.566Z,11.96
2022-11-03T12:12:41.254Z,12.04
2022-11-03T12:17:42.939Z,11.94
2022-11-03T12:22:44.703Z,11.96
2022-11-03T12:27:46.360Z,11.89
2022-11-03T12:32:48.087Z,11.79
2022-11-03T12:37:49.712Z,11.80
2022-11-03T12:42:51.402Z,11.70
2022-11-03T12:47:53.015Z,11.83
2022-11-03T12:52:54.724Z,11.95
2022-11-03T12:57:56.392Z,12.02
2022-11-03T13:02:58.163Z,12.04
2022-11-03T13:07:59.795Z,11.99
2022-11-03T13:13:01.449Z,11.97
2022-11-03T13:18:14.325Z,11.89
2022-11-03T13:23:18.779Z,11.90
2022-11-03T13:28:23.629Z,11.77
2022-11-03T13:33:25.253Z,11.68
2022-11-03T13:38:26.871Z,11.58
2022-11-03T13:43:29.155Z,11.44
2022-11-03T13:49:33.983Z,11.41
2022-11-03T13:59:30.064Z,11.25
2022-11-03T14:04:47.495Z,11.17
2022-11-03T14:09:49.119Z,11.13
2022-11-03T14:14:50.730Z,11.06
2022-11-03T14:19:55.554Z,11.12
2022-11-03T14:25:01.431Z,11.06
2022-11-03T14:30:04.606Z,10.97
2022-11-03T14:35:07.687Z,10.84
2022-11-03T14:40:30.338Z,10.87
2022-11-03T14:45:32.017Z,10.93
2022-11-03T14:50:33.704Z,10.94
2022-11-03T14:55:35.331Z,10.93
2022-11-03T15:00:36.978Z,11.00
2022-11-03T15:05:44.539Z,11.02
2022-11-03T15:10:46.501Z,10.93
2022-11-03T15:15:48.131Z,10.86
2022-11-03T15:20:49.990Z,10.91
2022-11-03T15:25:51.611Z,11.04
2022-11-03T15:30:53.238Z,11.14
2022-11-03T15:35:54.963Z,11.15
2022-11-03T15:41:15.459Z,11.12
2022-11-03T15:46:18.388Z,10.98
2022-11-03T15:51:20.077Z,10.84
2022-11-03T15:56:21.691Z,10.82
2022-11-03T16:01:23.603Z,10.83
2022-11-03T16:06:46.475Z,10.80
2022-11-03T16:11:47.023Z,10.49
2022-11-03T16:16:48.865Z,10.46
2022-11-03T16:21:51.724Z,10.47
2022-11-03T16:26:53.484Z,10.31
2022-11-03T16:31:55.251Z,10.24
2022-11-03T16:36:58.145Z,10.21
2022-11-03T16:42:02.900Z,10.18
2022-11-03T16:47:05.600Z,10.26
2022-11-03T16:52:09.140Z,10.18
2022-11-03T16:57:12.359Z,10.23
2022-11-03T17:02:16.528Z,10.38
2022-11-03T17:07:19.739Z,10.44
2022-11-03T17:12:21.583Z,10.33
2022-11-03T17:17:23.178Z,10.32
2022-11-03T17:22:24.906Z,10.30
2022-11-03T17:27:38.643Z,10.21
2022-11-03T17:32:44.379Z,10.06
2022-11-03T17:37:46.068Z,10.09
2022-11-03T17:42:49.423Z,10.14
2022-11-03T17:47:51.897Z,10.11
2022-11-03T17:52:54.153Z,10.03
2022-11-03T17:57:59.185Z,10.08
2022-11-03T18:03:01.511Z,10.18
2022-11-03T18:08:08.399Z,10.11
2022-11-03T18:13:16.683Z,10.10
2022-11-03T18:18:20.697Z,10.14
2022-11-03T18:23:27.053Z,10.31
2022-11-03T18:28:29.189Z,10.42
2022-11-03T18:33:36.494Z,10.46
2022-11-03T18:38:41.376Z,10.33
2022-11-03T18:43:43.298Z,10.41
2022-11-03T18:48:45.047Z,10.40
2022-11-03T18:53:46.805Z,10.41
2022-11-03T18:58:52.671Z,10.42
2022-11-03T19:03:54.515Z,10.21
2022-11-03T19:09:00.041Z,10.16
2022-11-03T19:14:01.886Z,10.26
2022-11-03T19:19:03.762Z,10.35
2022-11-03T19:24:05.566Z,10.33
2022-11-03T19:29:13.295Z,10.29
2022-11-03T19:34:18.583Z,10.17
2022-11-03T19:39:23.462Z,10.20
2022-11-03T19:44:25.193Z,10.20
2022-11-03T19:49:27.216Z,10.18
2022-11-03T19:54:29.447Z,10.19
2022-11-03T19:59:31.448Z,10.28
2022-11-03T20:04:33.065Z,10.35
2022-11-03T20:09:36.360Z,10.38
2022-11-03T20:14:38.720Z,10.33
2022-11-03T20:19:43.829Z,10.42
2022-11-03T20:24:50.346Z,10.54
2022-11-03T20:29:52.671Z,10.52
2022-11-03T20:34:56.134Z,10.55
2022-11-03T20:39:58.473Z,10.48
2022-11-03T20:45:00.416Z,10.56
2022-11-03T20:50:02.036Z,10.63
2022-11-03T20:55:22.428Z,10.66
2022-11-03T21:00:29.471Z,10.70
2022-11-03T21:05:31.876Z,10.68
2022-11-03T21:10:33.541Z,10.69
2022-11-03T21:16:22.544Z,10.78
2022-11-03T21:21:20.713Z,10.91
2022-11-03T21:26:23.054Z,10.91
2022-11-03T21:31:24.659Z,10.97
2022-11-03T21:36:26.295Z,10.99
2022-11-03T21:41:46.520Z,11.03
2022-11-03T21:46:49.174Z,10.95
2022-11-03T21:51:50.815Z,10.98
2022-11-03T21:56:52.605Z,11.00
2022-11-03T22:01:55.246Z,10.95
2022-11-03T22:06:58.712Z,11.02
2022-11-03T22:12:00.981Z,11.11
2022-11-03T22:17:02.614Z,11.16
2022-11-03T22:22:31.651Z,11.19
2022-11-03T22:27:34.589Z,11.20
2022-11-03T22:32:37.009Z,11.20
2022-11-03T22:42:58.100Z,11.26
2022-11-03T22:47:59.691Z,11.20
2022-11-03T22:53:21.287Z,11.21
2022-11-03T22:58:27.840Z,11.18
2022-11-03T23:03:34.311Z,11.09
2022-11-03T23:08:37.910Z,11.00
2022-11-03T23:13:39.539Z,10.98
2022-11-03T23:19:00.538Z,10.95
2022-11-03T23:24:21.471Z,10.87
2022-11-03T23:29:23.073Z,10.83
2022-11-03T23:34:25.191Z,10.87
2022-11-03T23:39:26.795Z,10.90
2022-11-03T23:44:48.377Z,10.98
2022-11-03T23:49:49.973Z,10.87
2022-11-03T23:54:51.660Z,10.94
2022-11-03T23:59:53.286Z,11.00
